Home > Products > Valid Products > TAF

000
FTUS43 KJKL 041120
TAFLOZ
TAF
KLOZ 041120Z 0412/0512 00000KT P6SM SKC
     FM041500 23009KT P6SM SCT060
     FM050000 VRB03KT P6SM FEW120=



000
FTUS43 KJKL 041120
TAFSME
TAF
KSME 041120Z 0412/0512 00000KT P6SM SKC
     FM041500 24009KT P6SM SCT060
     FM050000 VRB03KT P6SM FEW120=



000
FTUS43 KJKL 041120
TAFJKL
TAF
KJKL 041120Z 0412/0512 VRB03KT P6SM SKC
     FM041500 24007KT P6SM SCT060
     FM050000 VRB03KT P6SM FEW120=



000
FTUS43 KJKL 040520
TAFJKL
TAF
KJKL 040520Z 0406/0506 00000KT P6SM SKC
     FM041500 24007KT P6SM SCT060
     FM050000 VRB03KT P6SM FEW120=



000
FTUS43 KJKL 040520
TAFSME
TAF
KSME 040520Z 0406/0506 00000KT P6SM SKC
     FM041500 24009KT P6SM SCT060
     FM050000 VRB03KT P6SM FEW120=



000
FTUS43 KJKL 040520
TAFLOZ
TAF
KLOZ 040520Z 0406/0506 00000KT P6SM SKC
     FM041500 23009KT P6SM SCT060
     FM050000 VRB03KT P6SM FEW120=



000
FTUS43 KJKL 040520
TAFJKL
TAF
KJKL 040520Z 0406/0506 00000KT P6SM SKC
     FM041500 24007KT P6SM SCT060
     FM050000 VRB03KT P6SM FEW120=



000
FTUS43 KJKL 040520
TAFLOZ
TAF
KLOZ 040520Z 0406/0506 00000KT P6SM SKC
     FM041500 23009KT P6SM SCT060
     FM050000 VRB03KT P6SM FEW120=



000
FTUS43 KJKL 040520
TAFSME
TAF
KSME 040520Z 0406/0506 00000KT P6SM SKC
     FM041500 24009KT P6SM SCT060
     FM050000 VRB03KT P6SM FEW120=



000
FTUS43 KJKL 032320
TAFSME
TAF
KSME 032320Z 0400/0424 VRB06KT P6SM SCT100
     FM040500 00000KT P6SM SKC
     FM041500 24009KT P6SM SCT060=



000
FTUS43 KJKL 032320
TAFLOZ
TAF
KLOZ 032320Z 0400/0424 VRB05KT P6SM SCT100
     FM040600 00000KT P6SM SKC
     FM041500 23009KT P6SM SCT060=



000
FTUS43 KJKL 032320
TAFJKL
TAF
KJKL 032320Z 0400/0424 VRB04KT P6SM SCT100
     FM040600 00000KT P6SM SKC
     FM041500 24007KT P6SM SCT060=



000
FTUS43 KJKL 032320
TAFLOZ
TAF
KLOZ 032320Z 0400/0424 VRB05KT P6SM SCT100
     FM040600 00000KT P6SM SKC
     FM041500 23009KT P6SM SCT060=



000
FTUS43 KJKL 032320
TAFJKL
TAF
KJKL 032320Z 0400/0424 VRB04KT P6SM SCT100
     FM040600 00000KT P6SM SKC
     FM041500 24007KT P6SM SCT060=



000
FTUS43 KJKL 032320
TAFSME
TAF
KSME 032320Z 0400/0424 VRB06KT P6SM SCT100
     FM040500 00000KT P6SM SKC
     FM041500 24009KT P6SM SCT060=



000
FTUS43 KJKL 031723
TAFSME
TAF
KSME 031723Z 0318/0418 VRB05KT P6SM SCT070 SCT180
     FM040400 00000KT P6SM SKC=



000
FTUS43 KJKL 031723
TAFLOZ
TAF
KLOZ 031723Z 0318/0418 VRB05KT P6SM SCT070 SCT180
     FM040400 00000KT P6SM SKC=



000
FTUS43 KJKL 031723
TAFJKL
TAF
KJKL 031723Z 0318/0418 VRB04KT P6SM SCT180
     FM040000 00000KT P6SM SKC=



000
FTUS43 KJKL 031723
TAFJKL
TAF
KJKL 031723Z 0318/0418 VRB04KT P6SM SCT180
     FM040000 00000KT P6SM SKC=



000
FTUS43 KJKL 031723
TAFLOZ
TAF
KLOZ 031723Z 0318/0418 VRB05KT P6SM SCT070 SCT180
     FM040400 00000KT P6SM SKC=



000
FTUS43 KJKL 031723
TAFSME
TAF
KSME 031723Z 0318/0418 VRB05KT P6SM SCT070 SCT180
     FM040400 00000KT P6SM SKC=



000
FTUS43 KJKL 031126
TAFSME
TAF
KSME 031126Z 0312/0412 VRB03KT P6SM SCT250
     FM031600 VRB04KT P6SM SCT070 SCT250=



000
FTUS43 KJKL 031126
TAFJKL
TAF
KJKL 031126Z 0312/0412 VRB03KT P6SM SCT250
     FM031600 VRB04KT P6SM FEW070 SCT250=



000
FTUS43 KJKL 031126
TAFLOZ
TAF
KLOZ 031126Z 0312/0412 VRB03KT P6SM SCT250
     FM031600 VRB04KT P6SM SCT070 SCT250=



000
FTUS43 KJKL 031126
TAFLOZ
TAF
KLOZ 031126Z 0312/0412 VRB03KT P6SM SCT250
     FM031600 VRB04KT P6SM SCT070 SCT250=



000
FTUS43 KJKL 031126
TAFSME
TAF
KSME 031126Z 0312/0412 VRB03KT P6SM SCT250
     FM031600 VRB04KT P6SM SCT070 SCT250=



000
FTUS43 KJKL 031126
TAFJKL
TAF
KJKL 031126Z 0312/0412 VRB03KT P6SM SCT250
     FM031600 VRB04KT P6SM FEW070 SCT250=



000
FTUS43 KJKL 030534
TAFJKL
TAF
KJKL 030534Z 0306/0406 VRB03KT P6SM SCT250
     FM031600 VRB04KT P6SM FEW070 SCT250=



000
FTUS43 KJKL 030534
TAFLOZ
TAF
KLOZ 030534Z 0306/0406 VRB03KT P6SM SCT250
     FM031600 VRB04KT P6SM SCT070 SCT250=



000
FTUS43 KJKL 030534
TAFSME
TAF
KSME 030534Z 0306/0406 VRB03KT P6SM SCT250
     FM031600 VRB04KT P6SM SCT070 SCT250=



000
FTUS43 KJKL 030534
TAFSME
TAF
KSME 030534Z 0306/0406 VRB03KT P6SM SCT250
     FM031600 VRB04KT P6SM SCT070 SCT250=



000
FTUS43 KJKL 030534
TAFJKL
TAF
KJKL 030534Z 0306/0406 VRB03KT P6SM SCT250
     FM031600 VRB04KT P6SM FEW070 SCT250=



000
FTUS43 KJKL 030534
TAFLOZ
TAF
KLOZ 030534Z 0306/0406 VRB03KT P6SM SCT250
     FM031600 VRB04KT P6SM SCT070 SCT250=



000
FTUS43 KJKL 022320
TAFSME
TAF
KSME 022320Z 0300/0324 VRB03KT P6SM SCT070 SCT200
     FM030300 00000KT P6SM SKC
     FM031400 VRB06KT P6SM FEW250=



000
FTUS43 KJKL 022320
TAFLOZ
TAF
KLOZ 022320Z 0300/0324 VRB03KT P6SM SCT070 SCT200
     FM030300 00000KT P6SM SKC
     FM031400 VRB06KT P6SM FEW250=



000
FTUS43 KJKL 022320
TAFLOZ
TAF
KLOZ 022320Z 0300/0324 VRB03KT P6SM SCT070 SCT200
     FM030300 00000KT P6SM SKC
     FM031400 VRB06KT P6SM FEW250=



000
FTUS43 KJKL 022320
TAFJKL
TAF
KJKL 022320Z 0300/0324 VRB03KT P6SM SCT070 SCT200
     FM030300 00000KT P6SM SKC
     FM031400 VRB06KT P6SM FEW250=



000
FTUS43 KJKL 022320
TAFSME
TAF
KSME 022320Z 0300/0324 VRB03KT P6SM SCT070 SCT200
     FM030300 00000KT P6SM SKC
     FM031400 VRB06KT P6SM FEW250=



000
FTUS43 KJKL 022320
TAFJKL
TAF
KJKL 022320Z 0300/0324 VRB03KT P6SM SCT070 SCT200
     FM030300 00000KT P6SM SKC
     FM031400 VRB06KT P6SM FEW250=



000
FTUS43 KJKL 021720
TAFLOZ
TAF
KLOZ 021720Z 0218/0318 VRB03KT P6SM SCT070 SCT170
     FM030700 00000KT 5SM BR FEW250
     FM031300 00000KT P6SM SCT250=



000
FTUS43 KJKL 021720
TAFJKL
TAF
KJKL 021720Z 0218/0318 VRB03KT P6SM SCT070 SCT170
     FM030500 00000KT P6SM FEW250=



000
FTUS43 KJKL 021720
TAFSME
TAF
KSME 021720Z 0218/0318 VRB03KT P6SM SCT070 SCT170
     FM030700 00000KT 5SM BR FEW250
     FM031300 00000KT P6SM SCT250=



000
FTUS43 KJKL 021720
TAFJKL
TAF
KJKL 021720Z 0218/0318 VRB03KT P6SM SCT070 SCT170
     FM030500 00000KT P6SM FEW250=



000
FTUS43 KJKL 021720
TAFSME
TAF
KSME 021720Z 0218/0318 VRB03KT P6SM SCT070 SCT170
     FM030700 00000KT 5SM BR FEW250
     FM031300 00000KT P6SM SCT250=



000
FTUS43 KJKL 021720
TAFLOZ
TAF
KLOZ 021720Z 0218/0318 VRB03KT P6SM SCT070 SCT170
     FM030700 00000KT 5SM BR FEW250
     FM031300 00000KT P6SM SCT250=



000
FTUS43 KJKL 021139 CCA
TAFLOZ
TAF COR
KLOZ 021139Z 0212/0312 00000KT 3SM BR SCT250
     FM021300 VRB06KT P6SM FEW060
     FM030600 00000KT 4SM BR SKC=



000
FTUS43 KJKL 021139 CCA
TAFLOZ
TAF COR
KLOZ 021139Z 0212/0312 00000KT 3SM BR SCT250
     FM021300 VRB06KT P6SM FEW060
     FM030600 00000KT 4SM BR SKC=



000
FTUS43 KJKL 021138 CCA
TAFSME
TAF COR
KSME 021138Z 0212/0312 00000KT 4SM BR SCT070
     FM021300 VRB05KT P6SM FEW060
     FM030600 00000KT 4SM BR SKC=



000
FTUS43 KJKL 021138 CCA
TAFSME
TAF COR
KSME 021138Z 0212/0312 00000KT 4SM BR SCT070
     FM021300 VRB05KT P6SM FEW060
     FM030600 00000KT 4SM BR SKC=



000
FTUS43 KJKL 021135
TAFLOZ
TAF
KLOZ 021135Z 0212/0312 00000KT 3SM BR SCT250
     FM021300 VRB06KT P6SM FEW060=



000
FTUS43 KJKL 021135
TAFSME
TAF
KSME 021135Z 0212/0312 00000KT 4SM BR SCT070
     FM021300 VRB05KT P6SM FEW060=



000
FTUS43 KJKL 021135
TAFSME
TAF
KSME 021135Z 0212/0312 00000KT 4SM BR SCT070
     FM021300 VRB05KT P6SM FEW060=



000
FTUS43 KJKL 021135
TAFLOZ
TAF
KLOZ 021135Z 0212/0312 00000KT 3SM BR SCT250
     FM021300 VRB06KT P6SM FEW060=



000
FTUS43 KJKL 021135
TAFJKL
TAF
KJKL 021135Z 0212/0312 VRB03KT P6SM FEW250
     FM021600 VRB06KT P6SM FEW060=



000
FTUS43 KJKL 021135
TAFJKL
TAF
KJKL 021135Z 0212/0312 VRB03KT P6SM FEW250
     FM021600 VRB06KT P6SM FEW060=



000
FTUS43 KJKL 020539
TAFLOZ
TAF
KLOZ 020539Z 0206/0306 VRB04KT 6SM BR SKC
     FM020800 VRB03KT 3SM BR SKC
     FM021300 VRB06KT P6SM FEW060=



000
FTUS43 KJKL 020539
TAFSME
TAF
KSME 020539Z 0206/0306 00000KT 6SM BR SKC
     FM020900 00000KT 4SM BR FEW250
     FM021000 VRB03KT 2SM BR FEW250
     FM021200 VRB06KT P6SM FEW060=



000
FTUS43 KJKL 020539
TAFJKL
TAF
KJKL 020539Z 0206/0306 VRB03KT P6SM FEW250
     FM021200 VRB06KT P6SM FEW060=



000
FTUS43 KJKL 012336
TAFJKL
TAF
KJKL 012336Z 0200/0224 VRB03KT P6SM FEW080
     FM020900 VRB03KT 4SM BR SKC
     FM021200 VRB06KT P6SM FEW060=



000
FTUS43 KJKL 012336
TAFLOZ
TAF
KLOZ 012336Z 0200/0224 VRB04KT P6SM FEW080
     FM020800 VRB03KT 1SM BR SKC
     FM021300 VRB06KT P6SM FEW060=



000
FTUS43 KJKL 012336
TAFLOZ
TAF
KLOZ 012336Z 0200/0224 VRB04KT P6SM FEW080
     FM020800 VRB03KT 1SM BR SKC
     FM021300 VRB06KT P6SM FEW060=



000
FTUS43 KJKL 012336
TAFJKL
TAF
KJKL 012336Z 0200/0224 VRB03KT P6SM FEW080
     FM020900 VRB03KT 4SM BR SKC
     FM021200 VRB06KT P6SM FEW060=



000
FTUS43 KJKL 012336
TAFSME
TAF
KSME 012336Z 0200/0224 VRB06KT P6SM SCT060
     FM020800 VRB03KT 2SM BR SKC
     FM021300 VRB06KT P6SM FEW060=



000
FTUS43 KJKL 012336
TAFSME
TAF
KSME 012336Z 0200/0224 VRB06KT P6SM SCT060
     FM020800 VRB03KT 2SM BR SKC
     FM021300 VRB06KT P6SM FEW060=



000
FTUS43 KJKL 011726
TAFSME
TAF
KSME 011726Z 0118/0218 36008KT P6SM BKN035
     FM012030 36005KT P6SM SCT040=



000
FTUS43 KJKL 011726
TAFJKL
TAF
KJKL 011726Z 0118/0218 VRB03KT P6SM BKN015 OVC035
     FM012030 VRB03KT P6SM SCT035=



000
FTUS43 KJKL 011726
TAFLOZ
TAF
KLOZ 011726Z 0118/0218 36005KT P6SM BKN025
     FM012100 36005KT P6SM SCT030=



    US Dept of Commerce
    National Oceanic and Atmospheric Administration
    National Weather Service
    1325 East West Highway
    Silver Spring, MD 20910
    Page Author: NWS Internet Services Team
Disclaimer
Information Quality
Credits
Glossary
Privacy Policy
Freedom of Information Act (FOIA)
About Us
Career Opportunities